sensor_id;sensor_type;location;lat;lon;timestamp;P1;durP1;ratioP1;P2;durP2;ratioP2
60714;SDS011;46564;53.096;8.246;2023-11-19T00:04:17;18.60;;;11.68;;
60714;SDS011;46564;53.096;8.246;2023-11-19T00:09:19;20.40;;;11.75;;
60714;SDS011;46564;53.096;8.246;2023-11-19T00:14:20;25.35;;;12.25;;
60714;SDS011;46564;53.096;8.246;2023-11-19T00:19:21;22.23;;;13.15;;
60714;SDS011;46564;53.096;8.246;2023-11-19T00:24:24;21.90;;;13.43;;
60714;SDS011;46564;53.096;8.246;2023-11-19T00:29:25;20.45;;;12.10;;
60714;SDS011;46564;53.096;8.246;2023-11-19T00:34:27;20.25;;;11.88;;
60714;SDS011;46564;53.096;8.246;2023-11-19T00:39:28;19.73;;;11.75;;
60714;SDS011;46564;53.096;8.246;2023-11-19T00:44:29;21.08;;;11.68;;
60714;SDS011;46564;53.096;8.246;2023-11-19T00:49:31;20.83;;;12.02;;
60714;SDS011;46564;53.096;8.246;2023-11-19T00:54:32;22.13;;;11.57;;
60714;SDS011;46564;53.096;8.246;2023-11-19T00:59:33;17.30;;;10.20;;
60714;SDS011;46564;53.096;8.246;2023-11-19T01:04:35;19.17;;;10.15;;
60714;SDS011;46564;53.096;8.246;2023-11-19T01:09:36;17.52;;;9.27;;
60714;SDS011;46564;53.096;8.246;2023-11-19T01:14:38;17.55;;;10.02;;
60714;SDS011;46564;53.096;8.246;2023-11-19T01:19:39;17.38;;;10.40;;
60714;SDS011;46564;53.096;8.246;2023-11-19T01:24:41;18.40;;;11.07;;
60714;SDS011;46564;53.096;8.246;2023-11-19T01:29:43;16.60;;;10.25;;
60714;SDS011;46564;53.096;8.246;2023-11-19T01:34:44;17.00;;;10.90;;
60714;SDS011;46564;53.096;8.246;2023-11-19T01:39:45;18.77;;;10.98;;
60714;SDS011;46564;53.096;8.246;2023-11-19T01:44:59;17.88;;;10.80;;
60714;SDS011;46564;53.096;8.246;2023-11-19T01:50:01;19.35;;;12.07;;
60714;SDS011;46564;53.096;8.246;2023-11-19T01:55:02;22.27;;;11.27;;
60714;SDS011;46564;53.096;8.246;2023-11-19T02:00:04;20.02;;;10.43;;
60714;SDS011;46564;53.096;8.246;2023-11-19T02:10:07;20.08;;;11.00;;
60714;SDS011;46564;53.096;8.246;2023-11-19T02:15:09;21.50;;;11.25;;
60714;SDS011;46564;53.096;8.246;2023-11-19T02:20:10;26.75;;;15.50;;
60714;SDS011;46564;53.096;8.246;2023-11-19T02:25:14;22.08;;;13.35;;
60714;SDS011;46564;53.096;8.246;2023-11-19T02:30:16;20.55;;;12.20;;
60714;SDS011;46564;53.096;8.246;2023-11-19T02:35:17;21.63;;;11.52;;
60714;SDS011;46564;53.096;8.246;2023-11-19T02:40:18;22.02;;;12.15;;
60714;SDS011;46564;53.096;8.246;2023-11-19T02:45:22;23.27;;;12.73;;
60714;SDS011;46564;53.096;8.246;2023-11-19T02:50:23;21.92;;;12.60;;
60714;SDS011;46564;53.096;8.246;2023-11-19T02:55:25;19.67;;;11.02;;
60714;SDS011;46564;53.096;8.246;2023-11-19T03:00:26;25.92;;;11.27;;
60714;SDS011;46564;53.096;8.246;2023-11-19T03:05:27;20.33;;;11.07;;
60714;SDS011;46564;53.096;8.246;2023-11-19T03:10:29;19.17;;;9.82;;
60714;SDS011;46564;53.096;8.246;2023-11-19T03:15:30;27.42;;;11.75;;
60714;SDS011;46564;53.096;8.246;2023-11-19T03:20:31;26.95;;;10.50;;
60714;SDS011;46564;53.096;8.246;2023-11-19T03:25:33;23.38;;;11.55;;
60714;SDS011;46564;53.096;8.246;2023-11-19T03:30:34;24.63;;;11.32;;
60714;SDS011;46564;53.096;8.246;2023-11-19T03:35:36;20.73;;;10.20;;
60714;SDS011;46564;53.096;8.246;2023-11-19T03:40:37;25.05;;;10.35;;
60714;SDS011;46564;53.096;8.246;2023-11-19T03:45:38;34.95;;;10.43;;
60714;SDS011;46564;53.096;8.246;2023-11-19T03:50:39;24.90;;;10.05;;
60714;SDS011;46564;53.096;8.246;2023-11-19T03:55:41;27.13;;;10.10;;
60714;SDS011;46564;53.096;8.246;2023-11-19T04:00:42;32.60;;;10.02;;
60714;SDS011;46564;53.096;8.246;2023-11-19T04:05:43;32.75;;;9.30;;
60714;SDS011;46564;53.096;8.246;2023-11-19T04:10:45;24.48;;;8.93;;
60714;SDS011;46564;53.096;8.246;2023-11-19T04:15:46;36.15;;;12.27;;
60714;SDS011;46564;53.096;8.246;2023-11-19T04:20:47;23.38;;;9.43;;
60714;SDS011;46564;53.096;8.246;2023-11-19T04:25:49;24.05;;;8.05;;
60714;SDS011;46564;53.096;8.246;2023-11-19T04:30:50;20.55;;;7.88;;
60714;SDS011;46564;53.096;8.246;2023-11-19T04:35:52;20.42;;;6.65;;
60714;SDS011;46564;53.096;8.246;2023-11-19T04:40:53;27.90;;;8.95;;
60714;SDS011;46564;53.096;8.246;2023-11-19T04:45:54;31.73;;;7.57;;
60714;SDS011;46564;53.096;8.246;2023-11-19T04:50:56;29.45;;;6.93;;
60714;SDS011;46564;53.096;8.246;2023-11-19T04:55:57;25.58;;;5.30;;
60714;SDS011;46564;53.096;8.246;2023-11-19T05:00:58;41.72;;;6.50;;
60714;SDS011;46564;53.096;8.246;2023-11-19T05:06:00;28.02;;;6.40;;
60714;SDS011;46564;53.096;8.246;2023-11-19T05:11:01;29.08;;;7.07;;
60714;SDS011;46564;53.096;8.246;2023-11-19T05:16:02;25.75;;;4.32;;
60714;SDS011;46564;53.096;8.246;2023-11-19T05:21:04;21.95;;;5.07;;
60714;SDS011;46564;53.096;8.246;2023-11-19T05:26:05;35.58;;;5.28;;
60714;SDS011;46564;53.096;8.246;2023-11-19T05:31:09;24.73;;;4.63;;
60714;SDS011;46564;53.096;8.246;2023-11-19T05:36:10;29.42;;;4.95;;
60714;SDS011;46564;53.096;8.246;2023-11-19T05:41:12;30.60;;;4.57;;
60714;SDS011;46564;53.096;8.246;2023-11-19T05:46:13;22.45;;;4.80;;
60714;SDS011;46564;53.096;8.246;2023-11-19T05:51:17;24.98;;;4.80;;
60714;SDS011;46564;53.096;8.246;2023-11-19T05:56:18;38.38;;;5.43;;
60714;SDS011;46564;53.096;8.246;2023-11-19T06:01:20;22.13;;;4.22;;
60714;SDS011;46564;53.096;8.246;2023-11-19T06:06:22;37.45;;;5.07;;
60714;SDS011;46564;53.096;8.246;2023-11-19T06:11:23;35.58;;;4.13;;
60714;SDS011;46564;53.096;8.246;2023-11-19T06:16:24;47.13;;;6.30;;
60714;SDS011;46564;53.096;8.246;2023-11-19T06:21:25;39.95;;;5.32;;
60714;SDS011;46564;53.096;8.246;2023-11-19T06:26:27;34.17;;;4.97;;
60714;SDS011;46564;53.096;8.246;2023-11-19T06:31:28;33.50;;;4.50;;
60714;SDS011;46564;53.096;8.246;2023-11-19T06:36:29;32.88;;;4.45;;
60714;SDS011;46564;53.096;8.246;2023-11-19T06:41:30;31.60;;;4.50;;
60714;SDS011;46564;53.096;8.246;2023-11-19T06:46:32;39.28;;;4.15;;
60714;SDS011;46564;53.096;8.246;2023-11-19T06:51:33;34.80;;;3.92;;
60714;SDS011;46564;53.096;8.246;2023-11-19T06:56:46;32.67;;;4.43;;
60714;SDS011;46564;53.096;8.246;2023-11-19T07:02:04;36.63;;;4.87;;
60714;SDS011;46564;53.096;8.246;2023-11-19T07:07:06;33.65;;;4.38;;
60714;SDS011;46564;53.096;8.246;2023-11-19T07:12:07;31.20;;;4.30;;
60714;SDS011;46564;53.096;8.246;2023-11-19T07:17:08;29.80;;;4.38;;
60714;SDS011;46564;53.096;8.246;2023-11-19T07:22:09;26.88;;;3.97;;
60714;SDS011;46564;53.096;8.246;2023-11-19T07:27:11;42.78;;;5.50;;
60714;SDS011;46564;53.096;8.246;2023-11-19T07:32:13;28.02;;;3.75;;
60714;SDS011;46564;53.096;8.246;2023-11-19T07:37:14;38.63;;;4.50;;
60714;SDS011;46564;53.096;8.246;2023-11-19T07:42:15;37.28;;;4.88;;
60714;SDS011;46564;53.096;8.246;2023-11-19T07:47:16;32.35;;;4.75;;
60714;SDS011;46564;53.096;8.246;2023-11-19T07:52:18;30.80;;;4.35;;
60714;SDS011;46564;53.096;8.246;2023-11-19T07:57:22;35.75;;;4.38;;
60714;SDS011;46564;53.096;8.246;2023-11-19T08:02:24;38.28;;;4.47;;
60714;SDS011;46564;53.096;8.246;2023-11-19T08:07:25;31.13;;;4.60;;
60714;SDS011;46564;53.096;8.246;2023-11-19T08:12:26;29.60;;;4.35;;
60714;SDS011;46564;53.096;8.246;2023-11-19T08:17:28;35.95;;;4.65;;
60714;SDS011;46564;53.096;8.246;2023-11-19T08:22:29;36.20;;;4.72;;
60714;SDS011;46564;53.096;8.246;2023-11-19T08:27:30;40.63;;;4.78;;
60714;SDS011;46564;53.096;8.246;2023-11-19T08:32:32;32.63;;;4.32;;
60714;SDS011;46564;53.096;8.246;2023-11-19T08:37:34;37.25;;;4.93;;
60714;SDS011;46564;53.096;8.246;2023-11-19T08:42:35;31.25;;;6.10;;
60714;SDS011;46564;53.096;8.246;2023-11-19T08:47:37;39.63;;;5.15;;
60714;SDS011;46564;53.096;8.246;2023-11-19T08:52:38;35.20;;;4.70;;
60714;SDS011;46564;53.096;8.246;2023-11-19T08:57:39;28.60;;;3.80;;
60714;SDS011;46564;53.096;8.246;2023-11-19T09:02:40;33.72;;;4.13;;
60714;SDS011;46564;53.096;8.246;2023-11-19T09:07:42;21.88;;;3.08;;
60714;SDS011;46564;53.096;8.246;2023-11-19T09:12:43;38.80;;;3.75;;
60714;SDS011;46564;53.096;8.246;2023-11-19T09:17:44;35.95;;;4.05;;
60714;SDS011;46564;53.096;8.246;2023-11-19T09:22:46;27.23;;;3.90;;
60714;SDS011;46564;53.096;8.246;2023-11-19T09:27:47;38.53;;;4.80;;
60714;SDS011;46564;53.096;8.246;2023-11-19T09:32:48;44.15;;;4.93;;
60714;SDS011;46564;53.096;8.246;2023-11-19T09:37:50;22.70;;;4.05;;
60714;SDS011;46564;53.096;8.246;2023-11-19T09:42:54;26.15;;;4.07;;
60714;SDS011;46564;53.096;8.246;2023-11-19T09:47:55;25.67;;;4.38;;
60714;SDS011;46564;53.096;8.246;2023-11-19T09:52:58;32.65;;;5.18;;
60714;SDS011;46564;53.096;8.246;2023-11-19T09:57:59;33.03;;;5.35;;
60714;SDS011;46564;53.096;8.246;2023-11-19T10:03:02;32.25;;;5.43;;
60714;SDS011;46564;53.096;8.246;2023-11-19T10:08:04;36.80;;;5.45;;
60714;SDS011;46564;53.096;8.246;2023-11-19T10:13:05;37.95;;;4.75;;
60714;SDS011;46564;53.096;8.246;2023-11-19T10:18:06;34.13;;;4.88;;
60714;SDS011;46564;53.096;8.246;2023-11-19T10:23:08;34.22;;;4.18;;
60714;SDS011;46564;53.096;8.246;2023-11-19T10:28:09;23.85;;;3.88;;
60714;SDS011;46564;53.096;8.246;2023-11-19T10:38:13;34.88;;;4.43;;
60714;SDS011;46564;53.096;8.246;2023-11-19T10:43:15;26.55;;;4.22;;
60714;SDS011;46564;53.096;8.246;2023-11-19T10:48:16;29.27;;;4.28;;
60714;SDS011;46564;53.096;8.246;2023-11-19T10:53:17;33.00;;;4.43;;
60714;SDS011;46564;53.096;8.246;2023-11-19T10:58:19;29.67;;;4.05;;
60714;SDS011;46564;53.096;8.246;2023-11-19T11:03:21;32.67;;;4.25;;
60714;SDS011;46564;53.096;8.246;2023-11-19T11:08:23;34.97;;;5.28;;
60714;SDS011;46564;53.096;8.246;2023-11-19T11:13:25;29.83;;;4.35;;
60714;SDS011;46564;53.096;8.246;2023-11-19T11:18:27;24.85;;;4.25;;
60714;SDS011;46564;53.096;8.246;2023-11-19T11:33:41;37.50;;;4.60;;
60714;SDS011;46564;53.096;8.246;2023-11-19T11:39:03;35.38;;;6.25;;
60714;SDS011;46564;53.096;8.246;2023-11-19T11:44:05;31.65;;;4.32;;
60714;SDS011;46564;53.096;8.246;2023-11-19T11:49:06;25.08;;;3.53;;
60714;SDS011;46564;53.096;8.246;2023-11-19T11:54:08;35.60;;;4.28;;
60714;SDS011;46564;53.096;8.246;2023-11-19T11:59:19;32.22;;;4.40;;
60714;SDS011;46564;53.096;8.246;2023-11-19T12:04:20;24.77;;;3.97;;
60714;SDS011;46564;53.096;8.246;2023-11-19T12:09:22;25.45;;;5.38;;
60714;SDS011;46564;53.096;8.246;2023-11-19T12:14:59;27.50;;;3.83;;
60714;SDS011;46564;53.096;8.246;2023-11-19T12:19:44;29.27;;;3.28;;
60714;SDS011;46564;53.096;8.246;2023-11-19T12:24:46;15.70;;;2.35;;
60714;SDS011;46564;53.096;8.246;2023-11-19T12:29:49;13.98;;;2.45;;
60714;SDS011;46564;53.096;8.246;2023-11-19T12:34:50;15.32;;;2.47;;
60714;SDS011;46564;53.096;8.246;2023-11-19T12:39:51;20.02;;;4.35;;
60714;SDS011;46564;53.096;8.246;2023-11-19T12:44:55;15.18;;;3.03;;
60714;SDS011;46564;53.096;8.246;2023-11-19T12:49:57;11.00;;;1.67;;
60714;SDS011;46564;53.096;8.246;2023-11-19T12:54:58;6.63;;;1.83;;
60714;SDS011;46564;53.096;8.246;2023-11-19T12:59:59;7.13;;;1.67;;
60714;SDS011;46564;53.096;8.246;2023-11-19T13:05:19;8.05;;;2.13;;
60714;SDS011;46564;53.096;8.246;2023-11-19T13:10:20;9.55;;;1.50;;
60714;SDS011;46564;53.096;8.246;2023-11-19T13:15:22;8.70;;;1.48;;
60714;SDS011;46564;53.096;8.246;2023-11-19T13:20:24;6.35;;;1.52;;
60714;SDS011;46564;53.096;8.246;2023-11-19T13:25:26;13.07;;;2.13;;
60714;SDS011;46564;53.096;8.246;2023-11-19T13:30:27;11.23;;;1.80;;
60714;SDS011;46564;53.096;8.246;2023-11-19T13:35:28;18.08;;;2.67;;
60714;SDS011;46564;53.096;8.246;2023-11-19T13:40:30;20.50;;;3.05;;
60714;SDS011;46564;53.096;8.246;2023-11-19T13:45:31;23.23;;;3.88;;
60714;SDS011;46564;53.096;8.246;2023-11-19T13:50:32;33.55;;;4.22;;
60714;SDS011;46564;53.096;8.246;2023-11-19T13:55:33;17.25;;;3.45;;
60714;SDS011;46564;53.096;8.246;2023-11-19T14:00:35;20.67;;;3.45;;
60714;SDS011;46564;53.096;8.246;2023-11-19T14:05:36;24.70;;;3.53;;
60714;SDS011;46564;53.096;8.246;2023-11-19T14:10:39;22.55;;;3.30;;
60714;SDS011;46564;53.096;8.246;2023-11-19T14:15:40;17.40;;;3.13;;
60714;SDS011;46564;53.096;8.246;2023-11-19T14:20:41;25.35;;;4.05;;
60714;SDS011;46564;53.096;8.246;2023-11-19T14:25:43;12.50;;;2.13;;
60714;SDS011;46564;53.096;8.246;2023-11-19T14:30:44;21.08;;;3.65;;
60714;SDS011;46564;53.096;8.246;2023-11-19T14:35:45;15.85;;;2.33;;
60714;SDS011;46564;53.096;8.246;2023-11-19T14:40:46;16.08;;;2.22;;
60714;SDS011;46564;53.096;8.246;2023-11-19T14:45:48;17.58;;;2.78;;
60714;SDS011;46564;53.096;8.246;2023-11-19T14:50:51;15.85;;;2.72;;
60714;SDS011;46564;53.096;8.246;2023-11-19T14:55:52;16.65;;;2.88;;
60714;SDS011;46564;53.096;8.246;2023-11-19T15:00:53;24.50;;;3.53;;
60714;SDS011;46564;53.096;8.246;2023-11-19T15:05:54;28.10;;;4.53;;
60714;SDS011;46564;53.096;8.246;2023-11-19T15:10:56;27.20;;;4.43;;
60714;SDS011;46564;53.096;8.246;2023-11-19T15:15:57;19.48;;;3.38;;
60714;SDS011;46564;53.096;8.246;2023-11-19T15:20:58;19.60;;;3.25;;
60714;SDS011;46564;53.096;8.246;2023-11-19T15:26:00;21.08;;;4.45;;
60714;SDS011;46564;53.096;8.246;2023-11-19T15:31:02;23.75;;;3.22;;
60714;SDS011;46564;53.096;8.246;2023-11-19T15:36:03;22.33;;;3.60;;
60714;SDS011;46564;53.096;8.246;2023-11-19T15:41:05;24.25;;;4.47;;
60714;SDS011;46564;53.096;8.246;2023-11-19T15:46:09;33.45;;;7.22;;
60714;SDS011;46564;53.096;8.246;2023-11-19T15:51:11;24.65;;;5.15;;
60714;SDS011;46564;53.096;8.246;2023-11-19T15:56:12;26.48;;;4.75;;
60714;SDS011;46564;53.096;8.246;2023-11-19T16:01:14;24.10;;;3.72;;
60714;SDS011;46564;53.096;8.246;2023-11-19T16:06:15;22.40;;;3.92;;
60714;SDS011;46564;53.096;8.246;2023-11-19T16:11:16;24.33;;;3.55;;
60714;SDS011;46564;53.096;8.246;2023-11-19T16:16:18;33.30;;;4.18;;
60714;SDS011;46564;53.096;8.246;2023-11-19T16:21:19;28.38;;;4.32;;
60714;SDS011;46564;53.096;8.246;2023-11-19T16:26:20;22.08;;;3.63;;
60714;SDS011;46564;53.096;8.246;2023-11-19T16:31:22;21.98;;;3.50;;
60714;SDS011;46564;53.096;8.246;2023-11-19T16:36:23;31.50;;;4.30;;
60714;SDS011;46564;53.096;8.246;2023-11-19T16:41:24;23.75;;;5.43;;
60714;SDS011;46564;53.096;8.246;2023-11-19T16:46:29;21.67;;;4.15;;
60714;SDS011;46564;53.096;8.246;2023-11-19T16:51:30;21.05;;;2.60;;
60714;SDS011;46564;53.096;8.246;2023-11-19T16:56:31;27.92;;;3.17;;
60714;SDS011;46564;53.096;8.246;2023-11-19T17:01:32;29.25;;;5.63;;
60714;SDS011;46564;53.096;8.246;2023-11-19T17:06:34;44.38;;;9.50;;
60714;SDS011;46564;53.096;8.246;2023-11-19T17:11:35;55.10;;;10.75;;
60714;SDS011;46564;53.096;8.246;2023-11-19T17:16:37;33.60;;;7.72;;
60714;SDS011;46564;53.096;8.246;2023-11-19T17:21:38;21.73;;;3.38;;
60714;SDS011;46564;53.096;8.246;2023-11-19T17:26:40;23.40;;;4.65;;
60714;SDS011;46564;53.096;8.246;2023-11-19T17:31:45;30.63;;;4.90;;
60714;SDS011;46564;53.096;8.246;2023-11-19T17:36:46;19.15;;;4.05;;
60714;SDS011;46564;53.096;8.246;2023-11-19T17:46:48;29.42;;;4.30;;
60714;SDS011;46564;53.096;8.246;2023-11-19T17:56:51;26.27;;;4.35;;
60714;SDS011;46564;53.096;8.246;2023-11-19T18:01:52;24.15;;;5.15;;
60714;SDS011;46564;53.096;8.246;2023-11-19T18:06:53;28.38;;;4.22;;
60714;SDS011;46564;53.096;8.246;2023-11-19T18:11:55;29.67;;;4.25;;
60714;SDS011;46564;53.096;8.246;2023-11-19T18:17:07;28.40;;;4.80;;
60714;SDS011;46564;53.096;8.246;2023-11-19T18:22:09;36.38;;;5.53;;
60714;SDS011;46564;53.096;8.246;2023-11-19T18:27:10;30.05;;;4.05;;
60714;SDS011;46564;53.096;8.246;2023-11-19T18:32:11;25.38;;;4.25;;
60714;SDS011;46564;53.096;8.246;2023-11-19T18:37:13;22.90;;;3.10;;
60714;SDS011;46564;53.096;8.246;2023-11-19T18:42:14;23.45;;;3.67;;
60714;SDS011;46564;53.096;8.246;2023-11-19T18:47:15;23.48;;;4.07;;
60714;SDS011;46564;53.096;8.246;2023-11-19T18:52:17;22.15;;;3.78;;
60714;SDS011;46564;53.096;8.246;2023-11-19T18:57:18;23.10;;;5.57;;
60714;SDS011;46564;53.096;8.246;2023-11-19T19:02:19;23.30;;;4.60;;
60714;SDS011;46564;53.096;8.246;2023-11-19T19:07:20;15.27;;;3.33;;
60714;SDS011;46564;53.096;8.246;2023-11-19T19:12:22;27.05;;;4.55;;
60714;SDS011;46564;53.096;8.246;2023-11-19T19:17:23;24.23;;;4.13;;
60714;SDS011;46564;53.096;8.246;2023-11-19T19:22:24;28.70;;;4.78;;
60714;SDS011;46564;53.096;8.246;2023-11-19T19:27:25;23.27;;;4.13;;
60714;SDS011;46564;53.096;8.246;2023-11-19T19:32:27;21.27;;;4.60;;
60714;SDS011;46564;53.096;8.246;2023-11-19T19:37:28;24.00;;;3.65;;
60714;SDS011;46564;53.096;8.246;2023-11-19T19:42:30;17.17;;;4.05;;
60714;SDS011;46564;53.096;8.246;2023-11-19T19:47:31;18.38;;;3.78;;
60714;SDS011;46564;53.096;8.246;2023-11-19T19:52:32;21.38;;;3.80;;
60714;SDS011;46564;53.096;8.246;2023-11-19T19:57:36;16.85;;;3.60;;
60714;SDS011;46564;53.096;8.246;2023-11-19T20:02:38;21.00;;;4.07;;
60714;SDS011;46564;53.096;8.246;2023-11-19T20:07:43;27.42;;;4.47;;
60714;SDS011;46564;53.096;8.246;2023-11-19T20:12:44;20.85;;;3.97;;
60714;SDS011;46564;53.096;8.246;2023-11-19T20:17:45;26.35;;;4.72;;
60714;SDS011;46564;53.096;8.246;2023-11-19T20:22:47;24.73;;;5.03;;
60714;SDS011;46564;53.096;8.246;2023-11-19T20:27:48;24.98;;;5.70;;
60714;SDS011;46564;53.096;8.246;2023-11-19T20:32:50;16.02;;;5.68;;
60714;SDS011;46564;53.096;8.246;2023-11-19T20:37:51;22.85;;;5.35;;
60714;SDS011;46564;53.096;8.246;2023-11-19T20:42:53;19.95;;;5.00;;
60714;SDS011;46564;53.096;8.246;2023-11-19T20:47:54;25.52;;;5.55;;
60714;SDS011;46564;53.096;8.246;2023-11-19T20:52:55;22.83;;;6.93;;
60714;SDS011;46564;53.096;8.246;2023-11-19T20:57:56;21.70;;;5.93;;
60714;SDS011;46564;53.096;8.246;2023-11-19T21:02:58;19.55;;;5.57;;
60714;SDS011;46564;53.096;8.246;2023-11-19T21:08:00;21.40;;;4.57;;
60714;SDS011;46564;53.096;8.246;2023-11-19T21:13:01;17.40;;;4.95;;
60714;SDS011;46564;53.096;8.246;2023-11-19T21:18:02;17.27;;;4.63;;
60714;SDS011;46564;53.096;8.246;2023-11-19T21:23:04;16.08;;;4.13;;
60714;SDS011;46564;53.096;8.246;2023-11-19T21:28:05;19.80;;;4.72;;
60714;SDS011;46564;53.096;8.246;2023-11-19T21:33:06;21.30;;;4.65;;
60714;SDS011;46564;53.096;8.246;2023-11-19T21:38:08;13.20;;;3.35;;
60714;SDS011;46564;53.096;8.246;2023-11-19T21:43:09;21.55;;;4.88;;
60714;SDS011;46564;53.096;8.246;2023-11-19T21:48:10;16.10;;;4.13;;
60714;SDS011;46564;53.096;8.246;2023-11-19T21:53:11;10.48;;;3.05;;
60714;SDS011;46564;53.096;8.246;2023-11-19T21:58:13;14.65;;;3.92;;
60714;SDS011;46564;53.096;8.246;2023-11-19T22:03:14;14.82;;;3.47;;
60714;SDS011;46564;53.096;8.246;2023-11-19T22:08:16;13.65;;;4.18;;
60714;SDS011;46564;53.096;8.246;2023-11-19T22:13:19;13.25;;;3.70;;
60714;SDS011;46564;53.096;8.246;2023-11-19T22:18:20;11.38;;;3.58;;
60714;SDS011;46564;53.096;8.246;2023-11-19T22:23:21;7.22;;;2.58;;
60714;SDS011;46564;53.096;8.246;2023-11-19T22:28:22;8.55;;;2.53;;
60714;SDS011;46564;53.096;8.246;2023-11-19T22:33:24;5.88;;;2.00;;
60714;SDS011;46564;53.096;8.246;2023-11-19T22:38:25;6.15;;;2.05;;
60714;SDS011;46564;53.096;8.246;2023-11-19T22:43:26;7.95;;;2.25;;
60714;SDS011;46564;53.096;8.246;2023-11-19T22:48:28;6.65;;;2.08;;
60714;SDS011;46564;53.096;8.246;2023-11-19T22:53:29;8.20;;;1.65;;
60714;SDS011;46564;53.096;8.246;2023-11-19T22:58:30;2.22;;;1.17;;
60714;SDS011;46564;53.096;8.246;2023-11-19T23:03:31;5.60;;;1.15;;
60714;SDS011;46564;53.096;8.246;2023-11-19T23:08:33;6.10;;;1.30;;
60714;SDS011;46564;53.096;8.246;2023-11-19T23:13:34;2.85;;;1.02;;
60714;SDS011;46564;53.096;8.246;2023-11-19T23:18:36;7.70;;;1.20;;
60714;SDS011;46564;53.096;8.246;2023-11-19T23:23:37;0.60;;;0.60;;
60714;SDS011;46564;53.096;8.246;2023-11-19T23:28:42;2.20;;;1.00;;
60714;SDS011;46564;53.096;8.246;2023-11-19T23:33:46;1.45;;;0.70;;
60714;SDS011;46564;53.096;8.246;2023-11-19T23:43:49;2.03;;;0.80;;
60714;SDS011;46564;53.096;8.246;2023-11-19T23:48:50;3.45;;;1.38;;
60714;SDS011;46564;53.096;8.246;2023-11-19T23:53:54;4.40;;;1.20;;
